Time;durP1;ratioP1;P1;durP2;ratioP2;P2;SDS_P1;SDS_P2;PMS_P1;PMS_P2;Temp;Humidity;BMP_temperature;BMP_pressure;BME280_temperature;BME280_humidity;BME280_pressure;Samples;Min_cycle;Max_cycle;Signal;HPM_P1;HPM_P2
2021/07/03 00:00:08;;;;;;;11.65;9.43;;;;;;;17.47;66.73;100160.19;6200445;23;20332;-77
2021/07/03 00:02:33;;;;;;;12.45;8.27;;;;;;;17.43;66.97;100167.50;6218497;23;20015;-77
2021/07/03 00:04:59;;;;;;;8.88;8.18;;;;;;;17.41;67.01;100167.00;6223183;23;20056;-75
2021/07/03 00:07:24;;;;;;;10.55;9.10;;;;;;;17.37;67.31;100174.31;6225516;23;20012;-76
2021/07/03 00:09:49;;;;;;;11.88;9.52;;;;;;;17.35;67.96;100174.63;6224130;23;20016;-75
2021/07/03 00:12:15;;;;;;;12.30;10.52;;;;;;;17.32;68.22;100166.97;6218085;23;20004;-77
2021/07/03 00:14:40;;;;;;;11.48;10.15;;;;;;;17.31;67.99;100168.09;6221579;23;20068;-76
2021/07/03 00:17:06;;;;;;;16.20;10.07;;;;;;;17.27;68.25;100161.56;6223263;23;20024;-74
2021/07/03 00:19:31;;;;;;;12.80;10.38;;;;;;;17.24;68.85;100160.28;6216800;23;20368;-76
2021/07/03 00:21:57;;;;;;;12.05;10.23;;;;;;;17.20;68.33;100167.56;6225867;23;20013;-73
2021/07/03 00:24:22;;;;;;;16.00;10.95;;;;;;;17.17;68.71;100151.63;6215749;23;20024;-74
2021/07/03 00:26:48;;;;;;;15.55;11.35;;;;;;;17.12;68.77;100153.69;6215436;23;20450;-77
2021/07/03 00:29:13;;;;;;;9.90;8.75;;;;;;;17.06;69.02;100153.81;6223306;23;19997;-77
2021/07/03 00:31:39;;;;;;;13.00;10.65;;;;;;;17.05;69.27;100145.84;6225794;23;20012;-78
2021/07/03 00:34:04;;;;;;;10.88;9.82;;;;;;;17.08;69.12;100137.75;6219999;23;19996;-76
2021/07/03 00:36:30;;;;;;;12.82;10.43;;;;;;;17.06;69.45;100144.72;6194470;23;20036;-75
2021/07/03 00:38:56;;;;;;;12.00;10.68;;;;;;;17.06;69.17;100128.97;6224980;23;20007;-76
2021/07/03 00:41:21;;;;;;;8.43;7.75;;;;;;;17.09;69.19;100135.81;6225784;23;20005;-77
2021/07/03 00:43:47;;;;;;;18.77;11.30;;;;;;;17.07;69.19;100125.06;6196862;23;20083;-78
2021/07/03 00:46:13;;;;;;;8.57;7.70;;;;;;;17.10;69.18;100129.16;6230937;23;20396;-77
2021/07/03 00:48:39;;;;;;;6.68;6.22;;;;;;;17.12;68.97;100126.88;6226684;23;20040;-79
2021/07/03 00:51:05;;;;;;;4.43;4.10;;;;;;;17.15;68.92;100119.91;6206954;23;20008;-78
2021/07/03 00:53:30;;;;;;;5.57;5.10;;;;;;;17.18;68.94;100110.97;6232063;23;20072;-79
2021/07/03 00:55:56;;;;;;;3.95;3.55;;;;;;;17.27;68.40;100106.31;6227134;23;20020;-74
2021/07/03 00:58:22;;;;;;;4.55;4.25;;;;;;;17.33;68.45;100105.00;6188121;23;20342;-75
2021/07/03 01:00:47;;;;;;;4.57;4.32;;;;;;;17.40;68.27;100108.13;6192457;23;20008;-72
2021/07/03 01:03:12;;;;;;;2.83;2.72;;;;;;;17.49;68.15;100099.06;6194778;23;20008;-74
2021/07/03 01:05:38;;;;;;;2.78;2.58;;;;;;;17.56;67.87;100102.97;6201632;23;20072;-77
2021/07/03 01:08:04;;;;;;;3.30;3.10;;;;;;;17.60;67.95;100098.44;6224006;23;20011;-76
2021/07/03 01:10:30;;;;;;;2.95;2.75;;;;;;;17.62;67.89;100107.25;6197392;23;20091;-76
2021/07/03 01:12:56;;;;;;;3.75;3.50;;;;;;;17.63;67.72;100094.22;6222340;23;20008;-75
2021/07/03 01:15:22;;;;;;;4.85;4.45;;;;;;;17.60;67.87;100092.91;6192443;23;20008;-76
2021/07/03 01:17:48;;;;;;;3.85;3.65;;;;;;;17.59;67.80;100096.81;6190599;23;20009;-75
2021/07/03 01:20:15;;;;;;;2.85;2.75;;;;;;;17.57;67.62;100088.03;6190907;23;20000;-75
2021/07/03 01:22:42;;;;;;;3.25;3.03;;;;;;;17.58;67.88;100103.50;6195785;23;20039;-76
2021/07/03 01:25:09;;;;;;;6.00;5.50;;;;;;;17.55;68.04;100106.91;6215323;23;20000;-75
2021/07/03 01:27:35;;;;;;;6.72;6.22;;;;;;;17.47;68.30;100110.44;6197137;23;20009;-75
2021/07/03 01:30:01;;;;;;;7.38;6.75;;;;;;;17.42;68.55;100102.28;6227048;23;20020;-75
2021/07/03 01:32:27;;;;;;;10.93;9.15;;;;;;;17.37;68.63;100103.25;6225946;23;20008;-75
2021/07/03 01:34:52;;;;;;;7.18;6.47;;;;;;;17.39;68.62;100102.94;6216848;23;20000;-75
2021/07/03 01:37:18;;;;;;;4.32;4.03;;;;;;;17.41;68.54;100095.16;6186679;23;20009;-76
2021/07/03 01:39:43;;;;;;;4.15;3.95;;;;;;;17.44;68.48;100088.97;6195856;23;20379;-74
2021/07/03 01:42:09;;;;;;;3.47;3.25;;;;;;;17.49;68.62;100091.56;6220945;23;20083;-76
2021/07/03 01:44:35;;;;;;;2.67;2.58;;;;;;;17.53;68.22;100095.34;6193853;23;20092;-76
2021/07/03 01:47:02;;;;;;;2.45;2.35;;;;;;;17.55;68.50;100084.78;6221018;23;20107;-74
2021/07/03 01:49:34;;;;;;;2.35;1.73;;;;;;;17.55;68.27;100090.31;6196228;23;20004;-76
2021/07/03 01:52:00;;;;;;;2.53;2.42;;;;;;;17.54;68.47;100088.69;6218618;23;20038;-76
2021/07/03 01:54:25;;;;;;;3.90;3.70;;;;;;;17.55;68.61;100090.31;6221717;23;20057;-76
2021/07/03 01:57:00;;;;;;;2.63;2.42;;;;;;;17.51;68.15;100089.31;6194444;23;20015;-77
2021/07/03 01:59:30;;;;;;;3.22;3.03;;;;;;;17.50;68.47;100086.88;6225431;23;20009;-77
2021/07/03 02:01:58;;;;;;;3.85;3.63;;;;;;;17.48;68.65;100078.91;6223374;23;20031;-77
2021/07/03 02:04:23;;;;;;;2.90;2.80;;;;;;;17.50;68.66;100073.06;6223467;23;20035;-77
2021/07/03 02:06:49;;;;;;;2.83;2.63;;;;;;;17.52;68.59;100068.84;6220767;23;20005;-76
2021/07/03 02:09:16;;;;;;;2.58;2.47;;;;;;;17.56;68.32;100064.28;6189492;23;20013;-75
2021/07/03 02:11:41;;;;;;;1.52;1.52;;;;;;;17.59;68.32;100066.41;6193790;23;20039;-75
2021/07/03 02:14:07;;;;;;;1.90;1.80;;;;;;;17.62;68.21;100063.00;6170196;23;20009;-75
2021/07/03 02:16:32;;;;;;;1.98;1.88;;;;;;;17.65;68.01;100066.25;6220041;23;20020;-75
2021/07/03 02:18:58;;;;;;;1.90;1.80;;;;;;;17.66;68.17;100060.41;6217916;23;20009;-75
2021/07/03 02:21:24;;;;;;;1.27;1.20;;;;;;;17.70;67.95;100052.28;6195310;23;20060;-77
2021/07/03 02:23:49;;;;;;;2.30;2.20;;;;;;;17.73;68.07;100052.44;6218892;23;20076;-77
2021/07/03 02:26:14;;;;;;;2.63;2.53;;;;;;;17.74;67.91;100047.72;6223627;23;20004;-77
2021/07/03 02:28:40;;;;;;;2.90;2.80;;;;;;;17.76;68.31;100048.22;6221895;23;20059;-76
2021/07/03 02:31:05;;;;;;;2.38;2.28;;;;;;;17.75;68.21;100049.34;6165986;23;20008;-76
2021/07/03 02:33:32;;;;;;;3.47;3.28;;;;;;;17.74;68.23;100051.31;6217359;23;20004;-77
2021/07/03 02:35:58;;;;;;;3.42;3.22;;;;;;;17.73;68.51;100055.22;6197901;23;20008;-77
2021/07/03 02:38:23;;;;;;;3.13;2.92;;;;;;;17.73;68.54;100051.66;6220666;23;20005;-78
2021/07/03 02:40:49;;;;;;;2.90;2.80;;;;;;;17.72;68.57;100047.25;6220566;23;20004;-77
2021/07/03 02:43:14;;;;;;;3.88;3.58;;;;;;;17.71;68.41;100048.38;6196258;23;20012;-77
2021/07/03 02:45:40;;;;;;;3.80;3.42;;;;;;;17.72;68.45;100045.28;6198277;23;20011;-77
2021/07/03 02:48:05;;;;;;;3.20;3.08;;;;;;;17.73;68.29;100046.13;6222604;23;20016;-77
2021/07/03 02:50:31;;;;;;;2.15;2.05;;;;;;;17.69;68.71;100045.13;6209834;23;20459;-77
2021/07/03 02:52:56;;;;;;;3.25;3.05;;;;;;;17.70;68.58;100049.53;6222783;23;20050;-76
2021/07/03 02:55:22;;;;;;;4.15;3.90;;;;;;;17.71;68.78;100042.84;6217168;23;20005;-77
2021/07/03 02:57:47;;;;;;;3.40;3.20;;;;;;;17.74;68.43;100047.72;6223565;23;20004;-76
2021/07/03 03:00:15;;;;;;;3.10;2.90;;;;;;;17.76;68.68;100049.03;6223558;23;20027;-77
2021/07/03 03:02:40;;;;;;;3.20;3.10;;;;;;;17.78;68.67;100038.47;6197400;23;20040;-76
2021/07/03 03:05:10;;;;;;;4.03;3.83;;;;;;;17.82;68.51;100043.34;6219593;23;20009;-75
2021/07/03 03:07:37;;;;;;;2.33;2.22;;;;;;;17.82;68.61;100044.16;6220124;23;20056;-76
2021/07/03 03:10:05;;;;;;;2.63;2.42;;;;;;;17.81;68.63;100042.53;6194555;23;20062;-76
2021/07/03 03:12:30;;;;;;;3.22;3.08;;;;;;;17.73;68.55;100035.06;6192107;23;20012;-76
2021/07/03 03:14:56;;;;;;;5.72;5.38;;;;;;;17.79;68.44;100045.63;6192023;23;20028;-76
2021/07/03 03:17:21;;;;;;;5.35;5.05;;;;;;;17.73;68.90;100049.69;6194360;23;20015;-76
2021/07/03 03:19:46;;;;;;;4.78;4.57;;;;;;;17.66;68.95;100037.47;6218393;23;20009;-76
2021/07/03 03:22:12;;;;;;;6.32;5.78;;;;;;;17.63;69.26;100048.03;6219909;23;20020;-76
2021/07/03 03:24:37;;;;;;;7.68;7.00;;;;;;;17.60;69.26;100036.81;6187078;23;20000;-75
2021/07/03 03:27:03;;;;;;;5.63;5.10;;;;;;;17.58;69.30;100042.66;6216452;23;20013;-76
2021/07/03 03:29:29;;;;;;;5.38;5.07;;;;;;;17.55;69.25;100040.56;6191557;23;20001;-76
2021/07/03 03:31:54;;;;;;;5.35;5.05;;;;;;;17.51;69.39;100028.50;6221268;23;20480;-75
2021/07/03 03:34:20;;;;;;;4.85;4.43;;;;;;;17.54;69.81;100029.81;6195417;23;20013;-75
2021/07/03 03:36:45;;;;;;;8.13;7.53;;;;;;;17.54;69.66;100027.06;6189245;23;20324;-75
2021/07/03 03:39:10;;;;;;;7.43;6.80;;;;;;;17.53;69.68;100029.00;6220980;23;20016;-76
2021/07/03 03:41:36;;;;;;;7.05;6.50;;;;;;;17.50;69.74;100029.63;6223565;23;20550;-75
2021/07/03 03:44:01;;;;;;;6.65;6.00;;;;;;;17.46;69.68;100025.88;6197961;23;20009;-78
2021/07/03 03:46:27;;;;;;;5.43;5.05;;;;;;;17.43;69.74;100013.53;6225647;23;20009;-76
2021/07/03 03:48:52;;;;;;;5.30;4.90;;;;;;;17.44;69.64;100017.13;6229875;23;20020;-76
2021/07/03 03:51:17;;;;;;;4.38;4.18;;;;;;;17.45;69.93;100019.56;6222720;23;20040;-75
2021/07/03 03:53:43;;;;;;;5.00;4.60;;;;;;;17.47;69.41;100010.13;6193722;23;20009;-76
2021/07/03 03:56:09;;;;;;;4.85;4.55;;;;;;;17.43;69.68;100010.78;6217154;23;20036;-76
2021/07/03 03:58:34;;;;;;;5.80;5.38;;;;;;;17.41;69.48;100001.19;6196740;23;20005;-76
2021/07/03 04:01:00;;;;;;;5.35;5.05;;;;;;;17.39;69.52;100000.66;6222281;23;20028;-76
2021/07/03 04:03:25;;;;;;;9.07;6.00;;;;;;;17.42;69.72;100003.63;6192383;23;20035;-76
2021/07/03 04:05:51;;;;;;;4.07;3.88;;;;;;;17.40;69.94;99999.53;6224723;23;20000;-77
2021/07/03 04:08:16;;;;;;;2.92;2.80;;;;;;;17.45;69.74;99997.44;6223168;23;20012;-76
2021/07/03 04:10:41;;;;;;;4.00;3.70;;;;;;;17.44;69.74;99998.56;6193084;23;20447;-76
2021/07/03 04:13:07;;;;;;;9.15;8.30;;;;;;;17.44;69.66;99995.00;6194527;23;20016;-75
2021/07/03 04:15:32;;;;;;;6.45;6.00;;;;;;;17.43;69.78;99991.44;6197590;23;20009;-76
2021/07/03 04:17:58;;;;;;;5.85;5.55;;;;;;;17.45;69.72;99991.09;6165336;23;20031;-75
2021/07/03 04:20:23;;;;;;;4.93;4.63;;;;;;;17.44;69.87;100000.53;6189747;23;20003;-75
2021/07/03 04:22:49;;;;;;;4.30;3.67;;;;;;;17.44;69.82;99995.00;6223840;23;20004;-75
2021/07/03 04:25:15;;;;;;;4.15;3.95;;;;;;;17.50;69.37;99993.69;6218093;23;20024;-76
2021/07/03 04:27:41;;;;;;;6.07;5.68;;;;;;;17.53;70.09;99989.47;6223319;23;20016;-76
2021/07/03 04:30:09;;;;;;;5.47;5.18;;;;;;;17.55;69.62;99988.03;6223359;23;20012;-76
2021/07/03 04:32:35;;;;;;;4.80;4.50;;;;;;;17.53;69.56;99987.53;6190388;23;20063;-75
2021/07/03 04:35:01;;;;;;;4.03;3.83;;;;;;;17.56;69.72;99975.81;6196459;23;20004;-75
2021/07/03 04:37:27;;;;;;;4.43;4.13;;;;;;;17.58;69.97;99984.63;6216362;23;20009;-74
2021/07/03 04:39:52;;;;;;;4.28;4.07;;;;;;;17.58;69.90;99992.06;6187943;23;20004;-75
2021/07/03 04:42:17;;;;;;;7.88;7.10;;;;;;;17.55;69.64;99996.31;6220492;23;20013;-74
2021/07/03 04:44:43;;;;;;;7.43;6.93;;;;;;;17.54;69.93;99988.34;6189421;23;20012;-75
2021/07/03 04:47:08;;;;;;;9.43;6.25;;;;;;;17.52;69.57;99985.91;6216778;23;20016;-76
2021/07/03 04:49:34;;;;;;;6.43;4.43;;;;;;;17.52;69.87;99991.44;6194976;23;20012;-76
2021/07/03 04:52:00;;;;;;;4.72;4.45;;;;;;;17.48;70.07;99984.94;6224556;23;20015;-76
2021/07/03 04:54:26;;;;;;;5.68;5.28;;;;;;;17.52;70.37;99985.91;6219575;23;20005;-76
2021/07/03 04:56:51;;;;;;;7.22;6.70;;;;;;;17.55;69.85;99990.81;6216395;23;20012;-76
2021/07/03 04:59:16;;;;;;;5.60;5.10;;;;;;;17.53;69.98;99993.06;6183370;23;20308;-76
2021/07/03 05:01:42;;;;;;;3.60;3.45;;;;;;;17.56;69.74;99983.31;6197287;23;20015;-76
2021/07/03 05:04:07;;;;;;;4.68;4.15;;;;;;;17.64;69.96;99988.03;6222304;23;20091;-75
2021/07/03 05:06:33;;;;;;;3.58;3.33;;;;;;;17.69;69.89;99985.09;6172205;23;20008;-75
2021/07/03 05:08:58;;;;;;;3.50;3.30;;;;;;;17.76;69.63;99990.16;6221894;23;20012;-75
2021/07/03 05:11:24;;;;;;;4.57;4.28;;;;;;;17.84;69.40;99997.63;6223470;23;20491;-76
2021/07/03 05:13:49;;;;;;;4.95;4.22;;;;;;;17.90;69.34;100001.91;6175090;23;20009;-77
2021/07/03 05:16:15;;;;;;;2.63;2.53;;;;;;;17.91;69.49;99997.97;6199059;23;20009;-75
2021/07/03 05:18:41;;;;;;;3.28;3.08;;;;;;;17.94;69.07;99997.31;6225299;23;20009;-76
2021/07/03 05:21:06;;;;;;;3.33;3.20;;;;;;;17.94;69.40;100004.81;6196092;23;20076;-75
2021/07/03 05:23:32;;;;;;;6.57;6.15;;;;;;;17.95;69.54;100003.69;6198490;23;20489;-76
2021/07/03 05:25:57;;;;;;;6.30;5.90;;;;;;;17.94;69.14;100002.84;6168465;23;20051;-75
2021/07/03 05:28:23;;;;;;;4.88;4.45;;;;;;;17.96;69.49;99997.84;6194988;23;20131;-79
2021/07/03 05:30:49;;;;;;;4.80;4.57;;;;;;;17.98;69.18;100003.03;6225559;23;20024;-79
2021/07/03 05:33:15;;;;;;;3.85;3.65;;;;;;;17.98;68.98;100003.03;6200755;23;20489;-77
2021/07/03 05:35:41;;;;;;;3.67;3.47;;;;;;;18.03;69.23;99999.28;6224651;23;20059;-78
2021/07/03 05:38:06;;;;;;;4.63;4.35;;;;;;;18.02;69.10;99986.59;6219250;23;20008;-78
2021/07/03 05:40:32;;;;;;;6.72;6.22;;;;;;;18.03;68.89;99972.41;6224605;23;20009;-76
2021/07/03 05:42:57;;;;;;;5.03;4.78;;;;;;;18.09;69.18;99975.84;6165079;23;20331;-79
2021/07/03 05:45:23;;;;;;;6.43;5.82;;;;;;;18.08;69.00;99979.75;6197577;23;20047;-78
2021/07/03 05:47:52;;;;;;;6.38;5.97;;;;;;;18.01;69.20;99984.97;6223317;23;20036;-77
2021/07/03 05:50:20;;;;;;;7.15;6.55;;;;;;;17.95;69.25;99981.56;6218493;23;20107;-75
2021/07/03 05:52:45;;;;;;;7.20;6.43;;;;;;;17.87;69.55;99974.03;6229132;23;20005;-82
2021/07/03 05:55:11;;;;;;;6.15;5.65;;;;;;;17.84;69.53;99981.03;6226056;23;20489;-74
2021/07/03 05:57:37;;;;;;;6.30;5.93;;;;;;;17.81;69.64;99965.09;6224168;23;20095;-79
2021/07/03 06:00:05;;;;;;;6.30;5.97;;;;;;;17.85;69.51;99992.94;6172996;23;20005;-77
2021/07/03 06:02:31;;;;;;;6.45;5.97;;;;;;;17.82;69.60;99988.03;6219080;23;20066;-73
2021/07/03 06:04:56;;;;;;;7.40;6.80;;;;;;;17.80;69.77;99989.19;6196556;23;20024;-76
2021/07/03 06:07:21;;;;;;;5.68;5.30;;;;;;;17.82;69.74;99982.50;6196211;23;20008;-76
2021/07/03 06:09:47;;;;;;;6.97;6.47;;;;;;;17.85;69.79;99977.13;6198670;23;20020;-77
2021/07/03 06:12:12;;;;;;;8.80;8.10;;;;;;;17.94;69.60;99985.47;6209334;23;20008;-76
2021/07/03 06:14:37;;;;;;;9.43;8.25;;;;;;;17.93;69.49;99990.19;6220785;23;20412;-75
2021/07/03 06:17:03;;;;;;;9.32;8.50;;;;;;;17.87;69.35;99982.34;6170582;23;20011;-76
2021/07/03 06:19:28;;;;;;;6.70;6.20;;;;;;;17.87;69.87;99985.94;6191859;23;20005;-74
2021/07/03 06:21:56;;;;;;;7.45;6.93;;;;;;;17.87;69.14;99985.94;6172486;23;20023;-74
2021/07/03 06:24:26;;;;;;;9.23;8.05;;;;;;;17.87;69.54;99974.88;6191100;23;20001;-75
2021/07/03 06:26:52;;;;;;;10.02;8.95;;;;;;;17.89;69.30;99967.06;6216685;23;20013;-74
2021/07/03 06:29:17;;;;;;;9.77;9.02;;;;;;;17.91;68.91;99970.31;6221458;23;20600;-75
2021/07/03 06:31:45;;;;;;;12.98;8.90;;;;;;;18.01;69.39;99985.78;6190784;23;20088;-74
2021/07/03 06:34:11;;;;;;;9.88;8.20;;;;;;;18.02;69.24;99992.13;6194420;23;20027;-73
2021/07/03 06:36:36;;;;;;;10.77;9.75;;;;;;;18.04;69.11;99998.16;6189840;23;20020;-73
2021/07/03 06:39:03;;;;;;;11.50;10.32;;;;;;;18.02;69.08;99992.13;6217278;23;20008;-73
2021/07/03 06:41:28;;;;;;;9.30;8.57;;;;;;;18.02;68.93;99992.94;6216475;23;20008;-74
2021/07/03 06:43:53;;;;;;;10.35;9.35;;;;;;;18.06;69.28;99993.94;6195904;23;20088;-75
2021/07/03 06:46:19;;;;;;;10.70;9.82;;;;;;;18.14;69.51;99993.09;6207433;23;20005;-75
2021/07/03 06:48:44;;;;;;;15.23;8.73;;;;;;;18.22;68.89;100002.50;6216753;23;20063;-75
2021/07/03 06:51:10;;;;;;;9.77;9.07;;;;;;;18.26;68.77;99997.94;6223017;23;20009;-75
2021/07/03 06:53:35;;;;;;;14.60;10.90;;;;;;;18.25;68.93;99998.28;6220002;23;20008;-73
2021/07/03 06:56:01;;;;;;;11.85;9.25;;;;;;;18.31;68.54;99996.97;6191196;23;20075;-73
2021/07/03 06:58:27;;;;;;;6.20;5.75;;;;;;;18.34;68.60;100004.63;6221342;23;20015;-74
2021/07/03 07:00:52;;;;;;;9.95;8.98;;;;;;;18.39;68.82;99996.13;6217932;23;20004;-73
2021/07/03 07:03:17;;;;;;;7.72;7.13;;;;;;;18.49;68.88;99984.72;6224741;23;20009;-74
2021/07/03 07:05:43;;;;;;;10.55;9.43;;;;;;;18.64;68.28;99979.78;6223613;23;20012;-74
2021/07/03 07:08:08;;;;;;;8.07;7.47;;;;;;;18.74;68.59;99982.19;6196452;23;20084;-74
2021/07/03 07:10:34;;;;;;;13.38;10.60;;;;;;;18.77;68.25;99991.78;6195567;23;20062;-74
2021/07/03 07:13:05;;;;;;;13.18;10.43;;;;;;;18.78;68.01;99990.66;6221297;23;20047;-74
2021/07/03 07:15:31;;;;;;;16.75;12.35;;;;;;;18.76;67.68;99992.94;6210835;23;20009;-73
2021/07/03 07:17:56;;;;;;;10.68;9.65;;;;;;;18.77;67.60;99995.38;6218578;23;20442;-74
2021/07/03 07:20:22;;;;;;;9.10;7.35;;;;;;;18.86;68.23;99998.13;6190397;23;20015;-74
2021/07/03 07:22:47;;;;;;;10.73;9.75;;;;;;;18.93;67.79;99997.63;6191470;23;20043;-74
2021/07/03 07:25:13;;;;;;;17.20;10.90;;;;;;;18.93;67.23;99992.88;6216199;23;20011;-74
2021/07/03 07:27:38;;;;;;;15.38;11.55;;;;;;;18.95;67.53;99996.16;6219663;23;20490;-74
2021/07/03 07:30:05;;;;;;;9.90;8.73;;;;;;;19.02;67.40;100001.97;6191053;23;20036;-74
2021/07/03 07:32:30;;;;;;;6.70;6.35;;;;;;;19.16;67.60;99996.19;6217242;23;20008;-76
2021/07/03 07:34:56;;;;;;;11.05;9.95;;;;;;;19.25;67.41;99995.34;6221679;23;20063;-75
2021/07/03 07:37:21;;;;;;;16.55;12.10;;;;;;;19.27;67.12;100004.94;6189953;23;20557;-75
2021/07/03 07:39:47;;;;;;;17.88;13.70;;;;;;;19.25;66.94;100004.47;6218714;23;20023;-75
2021/07/03 07:42:12;;;;;;;25.23;14.75;;;;;;;19.21;66.78;100009.03;6191415;23;20008;-74
2021/07/03 07:44:38;;;;;;;15.63;12.75;;;;;;;19.23;67.55;100006.78;6194779;23;20000;-75
2021/07/03 07:47:03;;;;;;;15.45;11.75;;;;;;;19.25;67.32;100010.00;6224560;23;20024;-75
2021/07/03 07:49:28;;;;;;;14.82;11.10;;;;;;;19.35;67.72;100004.06;6216033;23;20016;-76
2021/07/03 07:51:54;;;;;;;12.85;10.88;;;;;;;19.56;66.83;99996.94;6218954;23;20004;-76
2021/07/03 07:54:19;;;;;;;8.70;8.00;;;;;;;19.90;67.07;99995.88;6197259;23;20019;-76
2021/07/03 07:56:45;;;;;;;7.95;7.30;;;;;;;20.29;66.25;99990.13;6170833;23;20024;-74
2021/07/03 07:59:10;;;;;;;14.77;11.20;;;;;;;20.56;64.74;99989.50;6221980;23;20004;-76
2021/07/03 08:01:35;;;;;;;10.40;9.50;;;;;;;20.71;63.71;99988.06;6217207;23;20063;-76
2021/07/03 08:04:01;;;;;;;9.45;8.52;;;;;;;20.71;63.40;99988.06;6224117;23;20090;-76
2021/07/03 08:06:26;;;;;;;11.32;10.20;;;;;;;20.75;63.43;99996.53;6181362;23;20099;-74
2021/07/03 08:08:52;;;;;;;8.75;8.02;;;;;;;20.85;63.11;99989.69;6218643;23;20008;-77
2021/07/03 08:11:17;;;;;;;11.82;10.80;;;;;;;21.03;62.67;99985.53;6219821;23;20049;-73
2021/07/03 08:13:53;;;;;;;12.30;8.82;;;;;;;21.27;62.24;99989.44;6181888;23;20012;-73
2021/07/03 08:16:18;;;;;;;9.02;8.30;;;;;;;21.52;61.69;99992.22;6215390;23;20020;-71
2021/07/03 08:18:43;;;;;;;16.00;11.45;;;;;;;21.69;60.62;99988.38;6215577;23;20004;-73
2021/07/03 08:21:09;;;;;;;8.45;7.82;;;;;;;21.77;60.03;99988.25;6218092;23;20039;-72
2021/07/03 08:23:34;;;;;;;8.07;7.50;;;;;;;21.90;59.94;99988.19;6221049;23;20386;-73
2021/07/03 08:26:00;;;;;;;9.95;8.73;;;;;;;22.07;58.70;99998.22;6219581;23;20011;-73
2021/07/03 08:28:26;;;;;;;8.15;6.75;;;;;;;22.27;58.48;99985.25;6193712;23;20035;-73
2021/07/03 08:30:55;;;;;;;6.47;5.97;;;;;;;22.42;57.79;99981.69;6184197;23;20063;-74
2021/07/03 08:36:49;;;;;;;6.40;5.93;;;;;;;22.70;55.79;99994.75;6209847;23;20104;-75
2021/07/03 08:39:17;;;;;;;6.80;6.30;;;;;;;22.70;54.71;99983.63;6199434;23;20080;-75
2021/07/03 08:41:46;;;;;;;5.82;5.28;;;;;;;22.72;54.55;99989.66;6198382;23;20000;-74
2021/07/03 08:44:13;;;;;;;5.82;5.45;;;;;;;22.77;54.25;99992.16;6225704;23;20000;-75
2021/07/03 08:46:44;;;;;;;5.25;4.95;;;;;;;22.91;54.78;99996.47;6228176;23;20008;-76
2021/07/03 08:49:12;;;;;;;4.38;4.00;;;;;;;22.96;53.74;99987.84;6220951;23;20005;-76
2021/07/03 08:51:42;;;;;;;4.88;4.25;;;;;;;23.00;53.79;99991.53;6227167;23;20009;-77
2021/07/03 08:54:08;;;;;;;4.15;3.83;;;;;;;23.12;53.75;99990.66;6174022;23;20012;-75
2021/07/03 08:56:34;;;;;;;4.40;4.13;;;;;;;23.06;53.47;99990.09;6197729;23;20041;-76
2021/07/03 08:59:00;;;;;;;3.70;3.42;;;;;;;23.00;52.71;99983.19;6196292;23;20012;-77
2021/07/03 09:01:25;;;;;;;4.10;3.72;;;;;;;22.77;52.85;99986.59;6221841;23;20009;-76
2021/07/03 09:03:53;;;;;;;4.32;3.88;;;;;;;22.53;53.30;99992.31;6222188;23;20123;-75
2021/07/03 09:06:32;;;;;;;5.80;3.97;;;;;;;22.36;54.08;100001.84;6197163;23;20335;-75
2021/07/03 09:09:00;;;;;;;4.60;4.30;;;;;;;22.23;54.56;99985.16;6191384;23;20019;-75
2021/07/03 09:11:30;;;;;;;3.85;3.65;;;;;;;22.34;54.64;99993.84;6223761;23;20019;-76
2021/07/03 09:14:00;;;;;;;4.72;4.43;;;;;;;22.28;54.44;99989.63;6220111;23;20001;-76
2021/07/03 09:17:09;;;;;;;5.10;4.80;;;;;;;22.35;54.48;99966.78;6227164;23;20005;-75
2021/07/03 09:19:35;;;;;;;4.07;3.78;;;;;;;22.51;54.09;99972.38;6224394;23;20501;-77
2021/07/03 09:22:00;;;;;;;3.83;3.60;;;;;;;22.75;54.63;99976.97;6224975;23;20001;-77
2021/07/03 09:24:37;;;;;;;3.00;2.80;;;;;;;23.10;53.99;99984.59;6173414;23;20331;-75
2021/07/03 09:27:17;;;;;;;;;;;;;;;;;;;;;
2021/07/03 09:29:54;;;;;;;3.47;3.30;;;;;;;23.36;52.21;99989.59;6200584;23;20455;-81
2021/07/03 09:32:26;;;;;;;5.00;4.57;;;;;;;23.13;52.15;99981.94;6172883;23;20004;-78
2021/07/03 09:34:54;;;;;;;3.15;2.95;;;;;;;23.00;52.75;99983.97;6198992;23;20403;-76
2021/07/03 09:37:20;;;;;;;2.50;2.40;;;;;;;23.06;53.21;99998.44;6198893;23;20079;-76
2021/07/03 09:39:50;;;;;;;2.60;2.50;;;;;;;23.08;52.85;99984.16;6195379;23;20008;-77
2021/07/03 09:42:24;;;;;;;3.97;3.78;;;;;;;23.14;52.23;99982.72;6197780;23;20012;-77
2021/07/03 09:45:22;;;;;;;3.95;3.65;;;;;;;23.07;51.89;99991.72;6224069;23;20054;-77
2021/07/03 09:48:03;;;;;;;3.85;3.67;;;;;;;22.86;52.34;99993.97;6222709;23;20063;-78
2021/07/03 09:50:39;;;;;;;;;;;;;;;;;;;;;
2021/07/03 09:53:13;;;;;;;3.40;3.25;;;;;;;22.75;53.17;99990.91;6225977;23;20035;-77
2021/07/03 09:55:39;;;;;;;4.60;3.50;;;;;;;22.82;53.00;100008.63;6176480;23;20008;-78
2021/07/03 09:58:08;;;;;;;2.90;2.70;;;;;;;22.73;53.15;100007.97;6199284;23;20319;-76
2021/07/03 10:00:36;;;;;;;3.92;3.60;;;;;;;22.65;53.25;100000.63;6223817;23;20019;-78
2021/07/03 10:03:13;;;;;;;3.50;3.40;;;;;;;22.55;53.67;99992.78;6224230;23;20028;-74
2021/07/03 10:05:44;;;;;;;2.88;2.70;;;;;;;22.64;54.07;99999.00;6228962;23;20001;-75
2021/07/03 10:08:19;;;;;;;3.58;3.35;;;;;;;22.91;53.74;99991.72;6201738;23;20072;-75
2021/07/03 10:10:52;;;;;;;4.28;3.85;;;;;;;23.09;53.13;100008.88;6219751;23;20001;-75
2021/07/03 10:13:20;;;;;;;2.90;2.80;;;;;;;22.92;53.08;99998.91;6219034;23;20441;-73
2021/07/03 10:15:48;;;;;;;3.35;3.15;;;;;;;22.96;52.98;99993.44;6218553;23;20012;-74
2021/07/03 10:18:22;;;;;;;3.50;3.40;;;;;;;23.08;52.75;100010.03;6195787;23;20112;-78
2021/07/03 10:20:49;;;;;;;3.33;3.22;;;;;;;22.91;52.85;99990.91;6190883;23;20009;-75
2021/07/03 10:23:17;;;;;;;4.15;3.95;;;;;;;22.97;53.13;99998.63;6222877;23;20000;-76
2021/07/03 10:25:45;;;;;;;3.60;3.40;;;;;;;22.93;52.92;100010.88;6213463;23;20028;-74
2021/07/03 10:28:15;;;;;;;3.25;3.05;;;;;;;22.75;53.10;100016.81;6217041;23;20009;-76
2021/07/03 10:30:45;;;;;;;3.40;2.88;;;;;;;22.28;53.69;100000.78;6221833;23;20008;-75
2021/07/03 10:33:21;;;;;;;4.47;3.55;;;;;;;22.01;54.67;100011.56;6214981;23;20004;-74
2021/07/03 10:35:52;;;;;;;2.20;2.10;;;;;;;21.58;55.99;100004.72;6191634;23;20440;-76
2021/07/03 10:38:26;;;;;;;4.28;2.20;;;;;;;21.38;56.95;100001.72;6211108;23;20001;-75
2021/07/03 10:41:15;;;;;;;6.78;1.52;;;;;;;21.33;57.64;99995.59;6211979;23;20007;-73
2021/07/03 10:43:51;;;;;;;2.00;1.90;;;;;;;21.51;58.47;99997.00;6217172;23;20010;-76
2021/07/03 10:46:31;;;;;;;1.63;1.58;;;;;;;21.94;57.68;99989.09;6217432;23;20005;-77
2021/07/03 10:49:02;;;;;;;2.03;1.85;;;;;;;22.10;56.25;100000.28;6216452;23;20021;-75
2021/07/03 10:51:30;;;;;;;0.90;0.90;;;;;;;22.37;56.06;100011.78;6171082;23;20020;-74
2021/07/03 10:54:26;;;;;;;3.20;2.78;;;;;;;22.42;55.28;100004.00;6219639;23;20419;-78
2021/07/03 10:57:12;;;;;;;1.83;1.73;;;;;;;22.38;55.64;100010.63;6214575;23;20012;-75
2021/07/03 10:59:40;;;;;;;2.20;2.10;;;;;;;22.23;55.82;100006.63;6213650;23;20013;-75
2021/07/03 11:02:12;;;;;;;2.50;2.40;;;;;;;22.13;56.38;100008.72;6192544;23;19997;-78
2021/07/03 11:04:50;;;;;;;2.03;1.92;;;;;;;22.00;56.35;100009.94;6195249;23;20050;-75
2021/07/03 11:07:18;;;;;;;3.45;3.25;;;;;;;21.75;56.95;99998.91;6220855;23;20005;-76
2021/07/03 11:09:48;;;;;;;3.38;3.08;;;;;;;21.56;57.91;100004.28;6198483;23;20061;-76
2021/07/03 11:12:21;;;;;;;2.67;2.58;;;;;;;21.50;58.46;100003.69;6217927;23;20070;-74
2021/07/03 11:14:57;;;;;;;3.20;3.00;;;;;;;21.44;59.07;99993.97;6195445;23;20426;-75
2021/07/03 11:17:24;;;;;;;;;;;;;;;21.76;58.68;100000.53;6217893;23;20061;-75
2021/07/03 11:19:57;;;;;;;2.33;2.22;;;;;;;21.77;59.24;99996.59;6190212;23;20223;-71
2021/07/03 11:22:24;;;;;;;1.65;1.60;;;;;;;21.92;58.85;99988.66;6194750;23;20012;-75
2021/07/03 11:25:00;;;;;;;4.55;1.70;;;;;;;21.84;58.44;99984.03;6190490;23;20008;-74
2021/07/03 11:27:40;;;;;;;1.10;1.10;;;;;;;21.72;58.51;99994.03;6216550;23;20067;-75
2021/07/03 11:30:22;;;;;;;0.77;0.77;;;;;;;21.62;58.85;99983.41;6221291;23;20007;-76
2021/07/03 11:32:56;;;;;;;0.80;0.80;;;;;;;21.76;58.98;99989.38;6189328;23;20373;-76